Favola — IBFH — position and weather

sailwx.info

Track history (hours):
 
Tides and Currents Weather Stations Pressure Air Temp Water Temp Dewpoint Dewpoint Depression Visibility Wind Speed Wind Dir Waves Ship Positions

Favola

Last reported at 2015-Apr-19 14:07 UTC. Time now 2015-Apr-21 23:30 UTC.
Position N 40°11' E 018°52'.

Length 180 m; draft 7.2 m.

Type: Tanker. MMSI: 247069800.

Date/timePositionNaut miles runAvg speedWind from/ knotsBaromVisibWave heightAir tempDewpointWater temp
2015-Apr-19 14:07N 40°11' E 018°52'7 8.1
2015-Apr-19 13:13N 40°05' E 018°48'8 8.3
2015-Apr-19 12:17N 39°58' E 018°43'7 8.5
2015-Apr-19 11:31N 39°52' E 018°39'11 8.3
2015-Apr-19 10:11N 39°43' E 018°31'6 8.4
2015-Apr-19 09:32N 39°39' E 018°27'240 9.6
2015-Apr-18 08:33N 36°30' E 015°18'9 9.1
2015-Apr-18 07:33N 36°23' E 015°10'10 8.7
2015-Apr-18 06:24N 36°15' E 015°03'8 9.1
2015-Apr-18 05:33N 36°09' E 014°57'10 9.1
2015-Apr-18 04:25N 36°01' E 014°49'9 9.1
2015-Apr-18 03:27N 35°53' E 014°43'2 2.0
2015-Apr-18 02:32N 35°52' E 014°45'0 0.0
2015-Apr-18 01:32N 35°52' E 014°45'0 0.0
2015-Apr-18 00:29N 35°52' E 014°45'0 0.0
2015-Apr-17 23:32N 35°52' E 014°45'0 0.0
2015-Apr-17 22:32N 35°52' E 014°45'0 0.0
2015-Apr-17 21:32N 35°52' E 014°45'0 0.1
2015-Apr-17 20:32N 35°52' E 014°45'6 5.9
2015-Apr-17 19:33N 35°49' E 014°39'5 5.0
2015-Apr-17 18:30N 35°49' E 014°33'0 0.0
2015-Apr-17 17:33N 35°49' E 014°33'0 0.0
2015-Apr-17 16:30N 35°49' E 014°33'0 0.0
2015-Apr-17 15:33N 35°49' E 014°33'0 0.0
2015-Apr-17 14:33N 35°49' E 014°33'0 0.0
2015-Apr-17 13:33N 35°49' E 014°33'0 0.0
2015-Apr-17 12:33N 35°49' E 014°33'0 0.0
2015-Apr-17 11:30N 35°49' E 014°33'0 0.0
2015-Apr-17 05:21N 35°49' E 014°33'0 0.0
2015-Apr-17 04:24N 35°49' E 014°33'0 0.0
2015-Apr-16 19:32N 35°49' E 014°33'0 0.0
2015-Apr-16 07:05N 35°49' E 014°33'0 0.0
2015-Apr-16 06:08N 35°49' E 014°33'0 0.0
2015-Apr-16 05:26N 35°49' E 014°33'0 0.0
2015-Apr-16 04:32N 35°49' E 014°33'0 0.0
2015-Apr-15 20:29N 35°49' E 014°33'0 0.0
2015-Apr-15 15:14N 35°49' E 014°33'0 0.0
2015-Apr-15 14:24N 35°49' E 014°33'5 5.4
2015-Apr-15 13:33N 35°48' E 014°38'1010.1
2015-Apr-15 12:33N 35°47' E 014°51'1812.6
2015-Apr-15 11:07N 35°50' E 015°13'712.7
2015-Apr-15 10:33N 35°51' E 015°21'39211.7
2015-Apr-14 01:08N 36°52' E 023°22'812.1
2015-Apr-14 00:29N 36°59' E 023°27'1212.6
2015-Apr-13 23:33N 37°08' E 023°37'1312.7
2015-Apr-13 22:33N 37°17' E 023°48'1312.8
2015-Apr-13 21:30N 37°27' E 023°59'1212.7
2015-Apr-13 20:33N 37°36' E 024°08'1712.6
2015-Apr-13 19:11N 37°49' E 024°24'912.7
2015-Apr-13 18:30N 37°54' E 024°33'  
Track history (hours):
 
Tides and Currents Weather Stations Pressure Air Temp Water Temp Dewpoint Dewpoint Depression Visibility Wind Speed Wind Dir Waves Ship Positions

Favola

Last reported at 2015-Apr-19 14:07 UTC. Time now 2015-Apr-21 23:30 UTC.
Position N 40°11' E 018°52'.

Length 180 m; draft 7.2 m.

Type: Tanker. MMSI: 247069800.

Date/timePositionNaut miles runAvg speedWind from/ knotsBaromVisibWave heightAir tempDewpointWater temp
2015-Apr-19 14:07N 40°11' E 018°52'7 8.1
2015-Apr-19 13:13N 40°05' E 018°48'8 8.3
2015-Apr-19 12:17N 39°58' E 018°43'7 8.5
2015-Apr-19 11:31N 39°52' E 018°39'11 8.3
2015-Apr-19 10:11N 39°43' E 018°31'6 8.4
2015-Apr-19 09:32N 39°39' E 018°27'240 9.6
2015-Apr-18 08:33N 36°30' E 015°18'9 9.1
2015-Apr-18 07:33N 36°23' E 015°10'10 8.7
2015-Apr-18 06:24N 36°15' E 015°03'8 9.1
2015-Apr-18 05:33N 36°09' E 014°57'10 9.1
2015-Apr-18 04:25N 36°01' E 014°49'9 9.1
2015-Apr-18 03:27N 35°53' E 014°43'2 2.0
2015-Apr-18 02:32N 35°52' E 014°45'0 0.0
2015-Apr-18 01:32N 35°52' E 014°45'0 0.0
2015-Apr-18 00:29N 35°52' E 014°45'0 0.0
2015-Apr-17 23:32N 35°52' E 014°45'0 0.0
2015-Apr-17 22:32N 35°52' E 014°45'0 0.0
2015-Apr-17 21:32N 35°52' E 014°45'0 0.1
2015-Apr-17 20:32N 35°52' E 014°45'6 5.9
2015-Apr-17 19:33N 35°49' E 014°39'5 5.0
2015-Apr-17 18:30N 35°49' E 014°33'0 0.0
2015-Apr-17 17:33N 35°49' E 014°33'0 0.0
2015-Apr-17 16:30N 35°49' E 014°33'0 0.0
2015-Apr-17 15:33N 35°49' E 014°33'0 0.0
2015-Apr-17 14:33N 35°49' E 014°33'0 0.0
2015-Apr-17 13:33N 35°49' E 014°33'0 0.0
2015-Apr-17 12:33N 35°49' E 014°33'0 0.0
2015-Apr-17 11:30N 35°49' E 014°33'0 0.0
2015-Apr-17 05:21N 35°49' E 014°33'0 0.0
2015-Apr-17 04:24N 35°49' E 014°33'0 0.0
2015-Apr-16 19:32N 35°49' E 014°33'0 0.0
2015-Apr-16 07:05N 35°49' E 014°33'0 0.0
2015-Apr-16 06:08N 35°49' E 014°33'0 0.0
2015-Apr-16 05:26N 35°49' E 014°33'0 0.0
2015-Apr-16 04:32N 35°49' E 014°33'0 0.0
2015-Apr-15 20:29N 35°49' E 014°33'0 0.0
2015-Apr-15 15:14N 35°49' E 014°33'0 0.0
2015-Apr-15 14:24N 35°49' E 014°33'5 5.4
2015-Apr-15 13:33N 35°48' E 014°38'1010.1
2015-Apr-15 12:33N 35°47' E 014°51'1812.6
2015-Apr-15 11:07N 35°50' E 015°13'712.7
2015-Apr-15 10:33N 35°51' E 015°21'39211.7
2015-Apr-14 01:08N 36°52' E 023°22'812.1
2015-Apr-14 00:29N 36°59' E 023°27'1212.6
2015-Apr-13 23:33N 37°08' E 023°37'1312.7
2015-Apr-13 22:33N 37°17' E 023°48'1312.8
2015-Apr-13 21:30N 37°27' E 023°59'1212.7
2015-Apr-13 20:33N 37°36' E 024°08'1712.6
2015-Apr-13 19:11N 37°49' E 024°24'912.7
2015-Apr-13 18:30N 37°54' E 024°33'  

Dump ship's entire track history